Time;durP1;ratioP1;P1;durP2;ratioP2;P2;SDS_P1;SDS_P2;PMS_P1;PMS_P2;Temp;Humidity;BMP_temperature;BMP_pressure;BME280_temperature;BME280_humidity;BME280_pressure;Samples;Min_cycle;Max_cycle;Signal;HPM_P1;HPM_P2
2022/10/12 00:01:57;;;;;;;0.00;0.00;;;;;;;15.36;59.44;98677.28;8414669;28;20325;-86
2022/10/12 00:06:02;;;;;;;0.00;0.00;;;;;;;15.35;59.39;98676.44;8414639;28;20295;-84
2022/10/12 00:10:06;;;;;;;0.00;0.00;;;;;;;15.32;59.23;98673.97;8414215;28;20238;-84
2022/10/12 00:14:09;;;;;;;0.00;0.00;;;;;;;15.34;59.22;98673.91;8413673;28;20233;-85
2022/10/12 00:18:12;;;;;;;0.07;0.07;;;;;;;15.26;59.71;98666.47;8414004;28;20252;-84
2022/10/12 00:22:14;;;;;;;0.03;0.03;;;;;;;15.29;59.60;98671.53;8412907;28;20232;-82
2022/10/12 00:26:20;;;;;;;0.00;0.00;;;;;;;15.30;59.43;98677.59;8413781;28;20226;-84
2022/10/12 00:30:23;;;;;;;0.00;0.00;;;;;;;15.28;59.66;98674.22;8413424;28;20245;-84
2022/10/12 00:34:26;;;;;;;0.00;0.00;;;;;;;15.20;59.70;98685.06;8413042;28;20389;-82
2022/10/12 00:38:28;;;;;;;0.00;0.00;;;;;;;15.21;59.36;98681.50;8413371;28;20280;-84
2022/10/12 00:42:32;;;;;;;0.00;0.00;;;;;;;15.26;59.46;98687.34;8413161;28;20234;-83
2022/10/12 00:46:37;;;;;;;0.00;0.00;;;;;;;15.19;59.87;98678.16;8413341;28;20243;-85
2022/10/12 00:50:40;;;;;;;0.00;0.00;;;;;;;15.14;59.79;98674.97;8413380;28;20462;-84
2022/10/12 00:54:45;;;;;;;0.03;0.03;;;;;;;15.08;59.58;98670.91;8412922;28;20226;-84
2022/10/12 00:58:50;;;;;;;0.00;0.00;;;;;;;15.08;59.66;98675.25;8413261;28;20433;-84
2022/10/12 01:02:53;;;;;;;0.00;0.00;;;;;;;15.01;60.11;98677.34;8412937;28;20235;-84
2022/10/12 01:06:56;;;;;;;0.00;0.00;;;;;;;15.05;59.77;98666.66;8413224;28;20230;-84
2022/10/12 01:10:58;;;;;;;0.07;0.07;;;;;;;14.98;60.56;98675.75;8413097;28;20230;-84
2022/10/12 01:15:03;;;;;;;0.00;0.00;;;;;;;14.99;59.98;98672.19;8412847;28;20425;-84
2022/10/12 01:19:19;;;;;;;0.00;0.00;;;;;;;14.85;60.28;98666.84;8412887;28;20234;-84
2022/10/12 01:23:48;;;;;;;0.00;0.00;;;;;;;14.97;59.59;98671.44;8412772;28;20280;-83
2022/10/12 01:27:53;;;;;;;0.00;0.00;;;;;;;14.92;59.90;98664.75;8412563;28;20411;-84
2022/10/12 01:31:59;;;;;;;0.00;0.00;;;;;;;14.89;59.91;98667.53;8412723;28;20234;-84
2022/10/12 01:36:08;;;;;;;0.00;0.00;;;;;;;14.90;59.51;98664.84;8418528;28;20254;-83
2022/10/12 01:40:15;;;;;;;0.00;0.00;;;;;;;14.85;59.81;98666.84;8419306;28;20227;-84
2022/10/12 01:44:20;;;;;;;0.00;0.00;;;;;;;14.78;59.85;98674.13;8419164;28;20244;-83
2022/10/12 01:48:24;;;;;;;0.10;0.10;;;;;;;14.66;60.18;98667.78;8419400;28;20268;-84
2022/10/12 01:52:28;;;;;;;0.00;0.00;;;;;;;14.65;59.90;98665.25;8418824;28;20243;-83
2022/10/12 01:56:36;;;;;;;0.00;0.00;;;;;;;14.62;59.88;98666.25;8418650;28;20316;-83
2022/10/12 02:00:42;;;;;;;0.10;0.10;;;;;;;14.55;59.95;98667.44;8418584;28;20260;-82
2022/10/12 02:04:50;;;;;;;0.00;0.00;;;;;;;14.45;59.73;98661.00;8418459;28;20235;-84
2022/10/12 02:08:56;;;;;;;0.10;0.10;;;;;;;14.34;59.90;98660.69;8418099;28;20226;-84
2022/10/12 02:13:01;;;;;;;0.00;0.00;;;;;;;14.31;59.64;98655.59;8418458;28;20404;-83
2022/10/12 02:17:05;;;;;;;0.10;0.10;;;;;;;14.32;59.51;98662.47;8417717;28;20280;-83
2022/10/12 02:21:09;;;;;;;0.03;0.03;;;;;;;14.31;59.31;98664.25;8417996;28;20347;-83
2022/10/12 02:25:15;;;;;;;0.00;0.00;;;;;;;14.18;59.28;98655.34;8418066;28;20376;-83
2022/10/12 02:29:22;;;;;;;0.03;0.03;;;;;;;14.12;59.01;98656.47;8417865;28;20388;-84
2022/10/12 02:33:28;;;;;;;0.10;0.10;;;;;;;14.10;59.06;98658.31;8417451;28;20231;-83
2022/10/12 02:37:36;;;;;;;0.00;0.00;;;;;;;13.91;59.29;98653.13;8417105;28;20276;-83
2022/10/12 02:41:42;;;;;;;0.07;0.07;;;;;;;13.98;59.44;98656.31;8417217;28;20538;-83
2022/10/12 02:45:46;;;;;;;0.00;0.00;;;;;;;13.85;59.28;98651.66;8416410;28;20280;-84
2022/10/12 02:49:50;;;;;;;0.00;0.00;;;;;;;13.91;59.43;98647.91;8417191;28;20227;-84
2022/10/12 02:53:55;;;;;;;0.10;0.10;;;;;;;13.68;59.53;98649.84;8416763;28;20227;-84
2022/10/12 02:57:57;;;;;;;0.10;0.10;;;;;;;13.60;60.35;98640.72;8416765;28;20231;-84
2022/10/12 03:02:00;;;;;;;0.10;0.10;;;;;;;13.75;60.20;98631.34;8416654;28;20246;-84
2022/10/12 03:06:03;;;;;;;0.10;0.10;;;;;;;13.77;60.29;98634.72;8416757;28;20234;-85
2022/10/12 03:10:08;;;;;;;0.10;0.10;;;;;;;13.69;60.35;98629.88;8416418;28;20234;-84
2022/10/12 03:14:11;;;;;;;0.10;0.10;;;;;;;13.75;60.05;98629.59;8416284;28;20238;-85
2022/10/12 03:18:14;;;;;;;0.10;0.10;;;;;;;13.67;59.86;98624.75;8416206;28;20257;-84
2022/10/12 03:22:17;;;;;;;0.00;0.00;;;;;;;13.68;59.89;98629.00;8415935;28;20234;-84
2022/10/12 03:26:21;;;;;;;0.10;0.10;;;;;;;13.73;59.02;98633.16;8416009;28;20226;-85
2022/10/12 03:30:24;;;;;;;0.10;0.10;;;;;;;13.58;59.64;98634.72;8415779;28;20246;-85
2022/10/12 03:34:27;;;;;;;0.10;0.10;;;;;;;13.62;59.53;98628.47;8415036;28;20268;-84
2022/10/12 03:38:30;;;;;;;0.00;0.00;;;;;;;13.51;59.49;98630.72;8415835;28;20227;-83
2022/10/12 03:42:34;;;;;;;0.10;0.10;;;;;;;13.49;59.14;98633.38;8416126;28;20530;-85
2022/10/12 03:46:37;;;;;;;0.10;0.10;;;;;;;13.51;59.12;98631.56;8416020;28;20235;-84
2022/10/12 03:50:39;;;;;;;0.00;0.00;;;;;;;13.38;59.28;98636.47;8415918;28;20280;-85
2022/10/12 03:54:42;;;;;;;0.10;0.10;;;;;;;13.37;59.02;98626.16;8415733;28;20235;-85
2022/10/12 03:58:46;;;;;;;0.03;0.03;;;;;;;13.34;59.13;98631.47;8414712;28;20401;-85
2022/10/12 04:02:49;;;;;;;0.10;0.10;;;;;;;13.19;59.02;98633.81;8415253;28;20392;-85
2022/10/12 04:06:51;;;;;;;0.00;0.00;;;;;;;13.23;58.99;98635.38;8415515;28;20272;-84
2022/10/12 04:10:55;;;;;;;0.10;0.10;;;;;;;13.16;59.44;98631.34;8414871;28;20222;-85
2022/10/12 04:14:59;;;;;;;0.10;0.10;;;;;;;13.12;59.04;98624.59;8414907;28;20284;-85
2022/10/12 04:19:02;;;;;;;0.10;0.10;;;;;;;13.17;59.26;98629.59;8415029;28;20501;-85
2022/10/12 04:23:05;;;;;;;0.10;0.10;;;;;;;13.17;58.99;98630.44;8414714;28;20238;-86
2022/10/12 04:27:07;;;;;;;0.10;0.10;;;;;;;13.27;58.67;98654.31;8414939;28;20261;-86
2022/10/12 04:31:12;;;;;;;0.10;0.10;;;;;;;13.16;58.17;98643.53;8414773;28;20250;-85
2022/10/12 04:35:14;;;;;;;0.00;0.00;;;;;;;12.98;58.76;98639.97;8414283;28;20230;-85
2022/10/12 04:39:17;;;;;;;0.03;0.03;;;;;;;12.93;58.55;98642.75;8414514;28;20234;-86
2022/10/12 04:43:22;;;;;;;0.10;0.10;;;;;;;12.94;58.13;98641.00;8414615;28;20549;-85
2022/10/12 04:47:27;;;;;;;0.00;0.00;;;;;;;12.94;58.60;98651.41;8414265;28;20226;-78
2022/10/12 04:51:30;;;;;;;0.10;0.10;;;;;;;12.79;58.25;98648.53;8414578;28;20241;-85
2022/10/12 04:55:32;;;;;;;0.10;0.10;;;;;;;12.85;58.36;98650.03;8413918;28;20461;-81
2022/10/12 04:59:35;;;;;;;0.10;0.10;;;;;;;12.84;58.68;98648.34;8413876;28;20235;-83
2022/10/12 05:03:39;;;;;;;0.10;0.10;;;;;;;12.78;58.75;98653.81;8413912;28;20468;-84
2022/10/12 05:07:43;;;;;;;0.10;0.10;;;;;;;12.78;58.34;98659.03;8413508;28;20306;-83
2022/10/12 05:11:46;;;;;;;0.10;0.10;;;;;;;12.71;58.45;98656.66;8413292;28;20591;-81
2022/10/12 05:15:49;;;;;;;0.10;0.10;;;;;;;12.70;58.18;98654.97;8413483;28;20492;-84
2022/10/12 05:19:53;;;;;;;0.10;0.10;;;;;;;12.72;58.68;98660.13;8413486;28;20231;-80
2022/10/12 05:23:55;;;;;;;0.10;0.10;;;;;;;12.66;58.79;98655.16;8413446;28;20257;-87
2022/10/12 05:27:59;;;;;;;0.10;0.10;;;;;;;12.64;58.96;98652.66;8413307;28;20545;-81
2022/10/12 05:32:01;;;;;;;0.10;0.10;;;;;;;12.70;58.94;98657.59;8413260;28;20337;-82
2022/10/12 05:36:06;;;;;;;0.10;0.10;;;;;;;12.64;59.13;98654.38;8413786;28;20226;-84
2022/10/12 05:40:10;;;;;;;0.10;0.10;;;;;;;12.73;59.01;98663.56;8413512;28;20534;-84
2022/10/12 05:44:13;;;;;;;0.10;0.10;;;;;;;12.76;58.28;98674.66;8413269;28;20234;-85
2022/10/12 05:48:15;;;;;;;0.10;0.10;;;;;;;12.73;58.02;98671.34;8412989;28;20231;-85
2022/10/12 05:52:20;;;;;;;0.10;0.10;;;;;;;12.68;58.60;98672.41;8413227;28;20418;-85
2022/10/12 05:56:22;;;;;;;0.10;0.10;;;;;;;12.65;58.87;98672.50;8412917;28;20277;-84
2022/10/12 06:00:25;;;;;;;0.10;0.10;;;;;;;12.83;58.88;98673.50;8412878;28;20238;-84
2022/10/12 06:04:28;;;;;;;0.10;0.10;;;;;;;12.79;59.21;98674.53;8412229;28;20234;-83
2022/10/12 06:08:32;;;;;;;0.10;0.10;;;;;;;12.87;59.00;98680.28;8412782;28;20241;-85
2022/10/12 06:12:35;;;;;;;0.10;0.10;;;;;;;12.91;59.02;98680.97;8412563;28;20242;-85
2022/10/12 06:16:38;;;;;;;0.10;0.10;;;;;;;12.98;59.00;98681.56;8412810;28;20234;-86
2022/10/12 06:20:41;;;;;;;0.10;0.10;;;;;;;12.89;59.79;98667.22;8413652;28;20234;-83
2022/10/12 06:24:45;;;;;;;0.10;0.10;;;;;;;13.04;59.79;98663.94;8418194;28;20276;-84
2022/10/12 06:28:47;;;;;;;0.10;0.10;;;;;;;13.18;59.07;98681.53;8418268;28;20259;-83
2022/10/12 06:32:50;;;;;;;0.10;0.10;;;;;;;13.15;59.45;98668.66;8418440;28;20530;-84
2022/10/12 06:36:53;;;;;;;0.10;0.10;;;;;;;13.11;59.78;98680.94;8418074;28;20510;-85
2022/10/12 06:41:04;;;;;;;0.10;0.10;;;;;;;13.30;59.53;98686.22;8417900;28;20227;-82
2022/10/12 06:45:08;;;;;;;0.10;0.10;;;;;;;13.25;60.11;98687.31;8417828;28;20230;-83
2022/10/12 06:49:10;;;;;;;0.10;0.10;;;;;;;13.30;60.05;98688.81;8417762;28;20246;-85
2022/10/12 06:53:13;;;;;;;0.10;0.10;;;;;;;13.37;60.07;98699.81;8417834;28;20433;-85
2022/10/12 06:57:17;;;;;;;0.10;0.10;;;;;;;13.47;59.39;98702.84;8417622;28;20227;-84
2022/10/12 07:01:20;;;;;;;0.10;0.10;;;;;;;13.45;59.51;98705.53;8417133;28;20231;-85
2022/10/12 07:05:23;;;;;;;0.10;0.10;;;;;;;13.50;59.68;98707.94;8417240;28;20306;-86
2022/10/12 07:09:26;;;;;;;0.10;0.10;;;;;;;13.49;59.72;98703.63;8416857;28;20514;-82
2022/10/12 07:13:30;;;;;;;0.10;0.10;;;;;;;13.62;59.16;98709.16;8416289;28;20234;-85
2022/10/12 07:17:32;;;;;;;0.10;0.10;;;;;;;13.60;59.71;98706.59;8416605;28;20234;-85
2022/10/12 07:21:35;;;;;;;0.10;0.10;;;;;;;13.65;59.49;98707.25;8416229;28;20280;-85
2022/10/12 07:25:38;;;;;;;0.10;0.10;;;;;;;13.77;59.85;98703.25;8416594;28;20234;-85
2022/10/12 07:29:42;;;;;;;0.00;0.00;;;;;;;13.83;59.43;98702.13;8416758;28;20534;-85
2022/10/12 07:33:44;;;;;;;0.10;0.10;;;;;;;13.85;59.21;98703.72;8416325;28;20231;-85
2022/10/12 07:37:48;;;;;;;0.00;0.00;;;;;;;13.97;59.06;98701.47;8416132;28;20226;-85
2022/10/12 07:41:52;;;;;;;0.10;0.10;;;;;;;14.06;59.42;98701.06;8416158;28;20226;-85
2022/10/12 07:45:56;;;;;;;0.10;0.10;;;;;;;14.08;58.98;98707.88;8415952;28;20226;-84
2022/10/12 07:49:58;;;;;;;0.00;0.00;;;;;;;14.08;59.59;98709.63;8415671;28;20241;-85
2022/10/12 07:54:01;;;;;;;0.10;0.10;;;;;;;14.23;59.06;98695.88;8415725;28;20234;-85
2022/10/12 07:58:04;;;;;;;0.10;0.10;;;;;;;14.54;59.34;98696.16;8415787;28;20399;-85
2022/10/12 08:02:09;;;;;;;0.00;0.00;;;;;;;14.96;58.43;98702.81;8415527;28;20230;-85
2022/10/12 08:06:14;;;;;;;0.10;0.10;;;;;;;15.37;57.17;98699.84;8415545;28;20231;-85
2022/10/12 08:10:17;;;;;;;0.10;0.10;;;;;;;16.27;55.54;98695.91;8415150;28;20231;-87
2022/10/12 08:14:20;;;;;;;0.03;0.03;;;;;;;16.83;53.77;98689.25;8414637;28;20231;-86
2022/10/12 08:18:24;;;;;;;0.10;0.10;;;;;;;17.36;52.21;98694.81;8415100;28;20226;-86
2022/10/12 08:22:26;;;;;;;0.00;0.00;;;;;;;17.14;52.79;98693.50;8414308;28;20465;-84
2022/10/12 08:26:29;;;;;;;0.00;0.00;;;;;;;16.75;54.51;98692.28;8414837;28;20235;-85
2022/10/12 08:30:32;;;;;;;0.00;0.00;;;;;;;16.63;54.36;98690.34;8414784;28;20249;-85
2022/10/12 08:34:36;;;;;;;0.00;0.00;;;;;;;17.72;51.73;98683.84;8414337;28;20230;-85
2022/10/12 08:38:42;;;;;;;0.00;0.00;;;;;;;17.71;50.97;98684.81;8414702;28;20238;-86
2022/10/12 08:42:50;;;;;;;0.00;0.00;;;;;;;18.39;49.20;98670.06;8414118;28;20238;-86
2022/10/12 08:46:55;;;;;;;0.00;0.00;;;;;;;18.64;48.72;98671.06;8414745;28;20222;-86
2022/10/12 08:51:02;;;;;;;0.00;0.00;;;;;;;18.83;48.45;98670.69;8414967;28;20234;-86
2022/10/12 08:55:17;;;;;;;0.00;0.00;;;;;;;19.33;47.03;98664.63;8414245;28;20227;-85
2022/10/12 08:59:19;;;;;;;0.00;0.00;;;;;;;18.73;48.60;98675.69;8413566;28;20404;-86
2022/10/12 09:03:37;;;;;;;0.00;0.00;;;;;;;17.88;50.05;98677.72;8416724;28;20284;-86
2022/10/12 09:07:44;;;;;;;0.00;0.00;;;;;;;18.32;50.07;98666.16;8416927;28;20247;-85
2022/10/12 09:12:00;;;;;;;0.00;0.00;;;;;;;19.05;50.00;98672.72;8415947;28;20224;-85
2022/10/12 09:16:06;;;;;;;0.00;0.00;;;;;;;19.91;47.68;98677.28;8416233;28;20224;-85
2022/10/12 09:20:17;;;;;;;0.00;0.00;;;;;;;19.77;47.09;98677.44;8415834;28;20228;-84
2022/10/12 09:24:25;;;;;;;0.00;0.00;;;;;;;20.22;46.62;98668.03;8417396;28;20233;-84
2022/10/12 09:28:31;;;;;;;0.00;0.00;;;;;;;20.34;46.22;98678.63;8415988;28;20229;-84
2022/10/12 09:32:43;;;;;;;0.00;0.00;;;;;;;20.86;44.91;98678.22;8415611;28;20306;-85
2022/10/12 09:36:46;;;;;;;0.00;0.00;;;;;;;21.01;45.38;98672.75;8414901;28;20253;-86
2022/10/12 09:40:52;;;;;;;0.00;0.00;;;;;;;20.64;46.02;98676.38;8413595;28;20230;-78
2022/10/12 09:44:57;;;;;;;0.00;0.00;;;;;;;20.54;46.71;98672.69;8413085;28;20442;-78
2022/10/12 09:49:00;;;;;;;0.00;0.00;;;;;;;20.87;49.65;98668.56;8413627;28;20252;-78
2022/10/12 09:53:12;;;;;;;0.00;0.00;;;;;;;20.76;47.00;98660.63;8413829;28;20463;-77
2022/10/12 09:57:21;;;;;;;0.00;0.00;;;;;;;20.19;48.70;98664.78;8417818;28;20232;-76
2022/10/12 10:01:25;;;;;;;0.00;0.00;;;;;;;19.50;51.10;98671.34;8420944;28;20530;-77
2022/10/12 10:05:30;;;;;;;0.00;0.00;;;;;;;20.01;49.14;98659.06;8420399;28;20258;-76
2022/10/12 10:09:34;;;;;;;0.00;0.00;;;;;;;20.56;48.72;98662.06;8420937;28;20240;-81
2022/10/12 10:13:39;;;;;;;0.10;0.10;;;;;;;21.51;46.49;98661.94;8420385;28;20279;-82
2022/10/12 10:17:42;;;;;;;0.00;0.00;;;;;;;21.76;45.98;98660.84;8420527;28;20232;-83
2022/10/12 10:21:45;;;;;;;0.00;0.00;;;;;;;20.49;48.14;98661.69;8419882;28;21654;-80
2022/10/12 10:25:55;;;;;;;0.00;0.00;;;;;;;20.33;48.33;98664.59;8419915;28;20230;-81
2022/10/12 10:30:20;;;;;;;0.00;0.00;;;;;;;20.94;47.48;98663.63;8418199;28;20400;-83
2022/10/12 10:34:42;;;;;;;0.00;0.00;;;;;;;20.27;49.04;98671.16;8419073;28;20235;-84
2022/10/12 10:38:54;;;;;;;0.00;0.00;;;;;;;20.39;49.36;98669.44;8419780;28;20358;-81
2022/10/12 10:42:58;;;;;;;0.00;0.00;;;;;;;21.22;47.08;98668.47;8419938;28;20226;-83
2022/10/12 10:47:08;;;;;;;0.00;0.00;;;;;;;21.48;46.79;98665.66;8419969;28;20249;-81
2022/10/12 10:51:11;;;;;;;0.00;0.00;;;;;;;21.23;47.81;98667.53;8419897;28;20273;-82
2022/10/12 10:55:20;;;;;;;0.00;0.00;;;;;;;20.90;48.24;98663.03;8419513;28;20227;-81
2022/10/12 10:59:33;;;;;;;0.00;0.00;;;;;;;20.68;48.89;98662.03;8420042;28;20518;-81
2022/10/12 11:03:43;;;;;;;0.00;0.00;;;;;;;20.41;49.83;98657.00;8418026;28;20238;-81
2022/10/12 11:07:53;;;;;;;0.00;0.00;;;;;;;20.00;50.49;98652.97;8417041;28;20426;-80
2022/10/12 11:11:59;;;;;;;0.00;0.00;;;;;;;20.45;49.43;98655.81;8417979;28;20393;-81
2022/10/12 11:16:08;;;;;;;0.00;0.00;;;;;;;20.11;50.11;98652.19;8418921;28;20288;-80
2022/10/12 11:20:30;;;;;;;0.00;0.00;;;;;;;20.59;49.15;98649.53;8418464;28;20228;-81
2022/10/12 11:24:38;;;;;;;0.00;0.00;;;;;;;21.04;48.82;98648.84;8417389;28;20234;-79
2022/10/12 11:28:41;;;;;;;0.00;0.00;;;;;;;21.13;48.03;98642.84;8418074;28;20239;-78
2022/10/12 11:32:47;;;;;;;0.00;0.00;;;;;;;21.30;47.36;98636.28;8418304;28;20237;-79
2022/10/12 11:36:53;;;;;;;0.00;0.00;;;;;;;21.38;47.48;98630.41;8418049;28;20230;-83
2022/10/12 11:41:18;;;;;;;0.00;0.00;;;;;;;21.13;48.45;98629.66;8418982;28;20226;-81
2022/10/12 11:45:42;;;;;;;0.00;0.00;;;;;;;21.45;47.28;98627.19;8417302;28;20241;-82
2022/10/12 11:49:51;;;;;;;0.00;0.00;;;;;;;21.61;47.37;98615.44;8418283;28;20231;-84
2022/10/12 11:54:00;;;;;;;0.00;0.00;;;;;;;20.42;49.04;98618.38;8418796;28;20226;-84
2022/10/12 11:58:08;;;;;;;0.00;0.00;;;;;;;20.88;49.49;98607.03;8417470;28;20223;-83
2022/10/12 12:02:19;;;;;;;0.00;0.00;;;;;;;20.68;49.78;98609.41;8417921;28;20227;-83
2022/10/12 12:06:48;;;;;;;0.00;0.00;;;;;;;20.24;50.18;98600.38;8417282;28;20226;-83
2022/10/12 12:11:05;;;;;;;0.00;0.00;;;;;;;19.89;52.92;98606.41;8417269;28;20229;-81
2022/10/12 12:15:20;;;;;;;0.00;0.00;;;;;;;20.01;51.74;98603.84;8416305;28;20237;-86
2022/10/12 12:19:39;;;;;;;0.00;0.00;;;;;;;21.07;49.75;98593.28;8415402;28;20230;-83
2022/10/12 12:23:51;;;;;;;0.00;0.00;;;;;;;21.07;49.48;98588.03;8416023;28;20336;-84
2022/10/12 12:27:56;;;;;;;0.00;0.00;;;;;;;21.23;48.22;98587.69;8416957;28;20513;-84
2022/10/12 12:32:00;;;;;;;0.00;0.00;;;;;;;21.26;47.57;98579.53;8416611;28;20234;-84
2022/10/12 12:36:05;;;;;;;0.00;0.00;;;;;;;21.35;48.19;98577.97;8416477;28;20247;-83
2022/10/12 12:40:21;;;;;;;0.00;0.00;;;;;;;21.31;47.43;98581.81;8417110;28;20233;-84
2022/10/12 12:44:39;;;;;;;0.00;0.00;;;;;;;21.78;47.22;98580.69;8415919;28;20534;-82
2022/10/12 12:48:59;;;;;;;0.00;0.00;;;;;;;21.80;47.03;98577.91;8415996;28;20234;-82
2022/10/12 12:53:06;;;;;;;0.00;0.00;;;;;;;22.06;46.26;98570.50;8417603;28;20234;-83
2022/10/12 12:57:33;;;;;;;0.00;0.00;;;;;;;21.53;47.17;98573.06;8415545;28;20230;-84
2022/10/12 13:01:58;;;;;;;0.00;0.00;;;;;;;21.00;47.83;98571.03;8415272;28;20226;-83
2022/10/12 13:06:24;;;;;;;0.00;0.00;;;;;;;21.41;47.45;98561.69;8415452;28;20410;-84
2022/10/12 13:10:33;;;;;;;0.00;0.00;;;;;;;21.20;48.01;98564.22;8414713;28;20530;-82
2022/10/12 13:14:50;;;;;;;0.00;0.00;;;;;;;20.58;49.36;98554.91;8415990;28;20266;-84
2022/10/12 13:18:59;;;;;;;0.00;0.00;;;;;;;20.14;50.73;98554.66;8418781;28;20234;-81
2022/10/12 13:23:06;;;;;;;0.00;0.00;;;;;;;21.20;47.80;98551.88;8417754;28;20237;-83
2022/10/12 13:27:17;;;;;;;0.00;0.00;;;;;;;20.96;49.19;98543.25;8416883;28;20226;-85
2022/10/12 13:31:23;;;;;;;0.00;0.00;;;;;;;21.01;49.71;98544.56;8420231;28;20265;-82
2022/10/12 13:35:32;;;;;;;0.00;0.00;;;;;;;21.67;47.89;98546.44;8422005;28;20284;-78
2022/10/12 13:39:38;;;;;;;0.00;0.00;;;;;;;21.79;47.46;98545.44;8424364;28;20579;-83
2022/10/12 13:43:44;;;;;;;0.00;0.00;;;;;;;21.80;48.03;98538.34;8422584;28;20252;-85
2022/10/12 13:47:47;;;;;;;0.00;0.00;;;;;;;21.48;48.91;98544.47;8421647;28;20272;-83
2022/10/12 13:51:53;;;;;;;0.00;0.00;;;;;;;21.33;49.48;98540.38;8421758;28;20226;-83
2022/10/12 13:56:00;;;;;;;0.00;0.00;;;;;;;21.51;49.12;98532.81;8421710;28;20230;-84
2022/10/12 14:00:09;;;;;;;0.00;0.00;;;;;;;21.81;48.03;98522.41;8421487;28;20226;-84
2022/10/12 14:04:12;;;;;;;0.00;0.00;;;;;;;21.84;48.07;98524.00;8421501;28;20254;-84
2022/10/12 14:08:19;;;;;;;0.00;0.00;;;;;;;21.82;48.48;98534.66;8421202;28;20296;-83
2022/10/12 14:12:23;;;;;;;0.00;0.00;;;;;;;21.48;48.97;98532.09;8421176;28;20254;-84
2022/10/12 14:16:27;;;;;;;0.00;0.00;;;;;;;21.62;48.62;98530.16;8422137;28;20246;-83
2022/10/12 14:20:33;;;;;;;0.00;0.00;;;;;;;21.71;48.56;98533.84;8423469;28;20280;-84
2022/10/12 14:24:38;;;;;;;0.00;0.00;;;;;;;21.74;48.28;98526.53;8421515;28;20238;-83
2022/10/12 14:28:40;;;;;;;0.00;0.00;;;;;;;21.51;48.46;98541.56;8421025;28;20542;-84
2022/10/12 14:32:44;;;;;;;0.00;0.00;;;;;;;21.27;49.36;98539.91;8419760;28;20283;-78
2022/10/12 14:36:46;;;;;;;0.00;0.00;;;;;;;21.25;49.57;98528.66;8419643;28;20374;-84
2022/10/12 14:40:50;;;;;;;0.00;0.00;;;;;;;21.11;49.15;98533.31;8419646;28;20234;-84
2022/10/12 14:44:54;;;;;;;0.00;0.00;;;;;;;20.91;50.01;98535.72;8420118;28;20269;-81
2022/10/12 14:48:56;;;;;;;0.00;0.00;;;;;;;20.35;51.15;98531.19;8420163;28;20249;-83
2022/10/12 14:53:02;;;;;;;0.00;0.00;;;;;;;20.37;50.79;98531.94;8422791;28;20252;-81
2022/10/12 14:57:14;;;;;;;0.00;0.00;;;;;;;20.35;50.87;98530.34;8422957;28;20262;-84
2022/10/12 15:01:17;;;;;;;0.00;0.00;;;;;;;20.16;51.26;98533.53;8423271;28;20256;-84
2022/10/12 15:05:22;;;;;;;0.00;0.00;;;;;;;20.18;51.68;98531.63;8422343;28;20234;-82
2022/10/12 15:09:24;;;;;;;0.00;0.00;;;;;;;20.05;51.52;98524.66;8422101;28;20246;-85
2022/10/12 15:13:29;;;;;;;0.00;0.00;;;;;;;19.87;52.32;98531.28;8421600;28;20241;-82
2022/10/12 15:17:32;;;;;;;0.00;0.00;;;;;;;19.57;52.97;98519.38;8421812;28;20249;-84
2022/10/12 15:21:34;;;;;;;0.00;0.00;;;;;;;19.33;53.82;98525.47;8421806;28;20240;-85
2022/10/12 15:25:42;;;;;;;0.00;0.00;;;;;;;19.31;53.93;98529.16;8422031;28;20260;-85
2022/10/12 15:29:46;;;;;;;0.00;0.00;;;;;;;19.17;54.56;98530.09;8421818;28;21665;-83
2022/10/12 15:33:50;;;;;;;0.00;0.00;;;;;;;19.12;54.79;98521.75;8421531;28;20223;-84
2022/10/12 15:37:55;;;;;;;0.00;0.00;;;;;;;18.95;54.94;98518.50;8423165;28;20229;-84
2022/10/12 15:41:58;;;;;;;0.00;0.00;;;;;;;18.79;55.20;98525.75;8423951;28;20232;-85
2022/10/12 15:46:02;;;;;;;0.00;0.00;;;;;;;18.68;55.61;98528.28;8421684;28;20262;-85
2022/10/12 15:50:05;;;;;;;0.00;0.00;;;;;;;18.60;56.15;98526.19;8422786;28;20253;-84
2022/10/12 15:54:09;;;;;;;0.00;0.00;;;;;;;18.48;56.46;98527.00;8422223;28;20233;-82
2022/10/12 15:58:12;;;;;;;0.00;0.00;;;;;;;18.52;55.82;98529.31;8424411;28;20228;-87
2022/10/12 16:02:16;;;;;;;0.00;0.00;;;;;;;18.39;56.53;98522.38;8423083;28;20232;-86
2022/10/12 16:06:19;;;;;;;0.00;0.00;;;;;;;18.29;56.83;98530.03;8421512;28;20228;-90
2022/10/12 16:10:24;;;;;;;0.00;0.00;;;;;;;18.15;57.50;98525.72;8420292;28;20484;-91
2022/10/12 16:14:27;;;;;;;0.00;0.00;;;;;;;18.06;57.74;98518.44;8415758;28;20515;-81
2022/10/12 16:18:31;;;;;;;0.00;0.00;;;;;;;18.00;57.91;98511.00;8417010;28;20234;-79
2022/10/12 16:22:36;;;;;;;0.00;0.00;;;;;;;17.95;57.81;98516.53;8416713;28;20246;-88
2022/10/12 16:26:39;;;;;;;0.00;0.00;;;;;;;17.81;58.18;98506.94;8417059;28;20240;-82
2022/10/12 16:30:47;;;;;;;0.00;0.00;;;;;;;17.72;58.46;98508.34;8416183;28;20224;-82
2022/10/12 16:34:52;;;;;;;0.00;0.00;;;;;;;17.62;58.85;98512.53;8416399;28;20288;-81
2022/10/12 16:38:55;;;;;;;0.00;0.00;;;;;;;17.53;59.18;98523.59;8415089;28;20233;-84
2022/10/12 16:42:58;;;;;;;0.00;0.00;;;;;;;17.54;58.98;98520.03;8414408;28;20228;-80
2022/10/12 16:47:01;;;;;;;0.00;0.00;;;;;;;17.48;59.14;98516.03;8414025;28;20334;-78
2022/10/12 16:51:08;;;;;;;0.00;0.00;;;;;;;17.34;59.72;98518.69;8413224;28;20365;-79
2022/10/12 16:55:11;;;;;;;0.00;0.00;;;;;;;17.24;59.83;98515.81;8414018;28;20227;-79
2022/10/12 16:59:14;;;;;;;0.00;0.00;;;;;;;17.18;60.06;98513.56;8414138;28;20231;-80
2022/10/12 17:03:17;;;;;;;0.00;0.00;;;;;;;17.16;60.19;98510.22;8417931;28;20230;-84
2022/10/12 17:07:21;;;;;;;0.00;0.00;;;;;;;17.11;60.13;98522.75;8413650;28;20246;-82
2022/10/12 17:11:24;;;;;;;0.10;0.10;;;;;;;16.95;60.23;98523.69;8413869;28;20238;-81
2022/10/12 17:15:27;;;;;;;0.00;0.00;;;;;;;16.92;60.67;98528.28;8413648;28;20245;-80
2022/10/12 17:19:32;;;;;;;0.00;0.00;;;;;;;16.94;60.22;98523.78;8413813;28;20425;-81
2022/10/12 17:23:37;;;;;;;0.00;0.00;;;;;;;16.83;60.92;98521.84;8415045;28;20514;-81
2022/10/12 17:27:40;;;;;;;0.00;0.00;;;;;;;16.81;61.08;98521.03;8413889;28;20560;-81
2022/10/12 17:31:45;;;;;;;0.00;0.00;;;;;;;16.91;60.74;98524.00;8413424;28;20245;-80
2022/10/12 17:35:47;;;;;;;0.00;0.00;;;;;;;16.85;60.42;98521.72;8412297;28;20566;-80
2022/10/12 17:39:58;;;;;;;0.00;0.00;;;;;;;16.85;60.92;98517.34;8412567;28;20425;-81
2022/10/12 17:44:01;;;;;;;0.00;0.00;;;;;;;16.77;61.11;98527.41;8412162;28;20231;-76
2022/10/12 17:48:04;;;;;;;0.00;0.00;;;;;;;16.74;61.04;98522.38;8413328;28;20241;-78
2022/10/12 17:52:07;;;;;;;0.00;0.00;;;;;;;16.63;61.05;98524.78;8413613;28;20546;-80
2022/10/12 17:56:13;;;;;;;0.00;0.00;;;;;;;16.60;61.27;98524.03;8414066;28;20373;-82
2022/10/12 18:00:17;;;;;;;0.10;0.10;;;;;;;16.60;61.53;98523.19;8414116;28;20238;-80
2022/10/12 18:04:20;;;;;;;0.00;0.00;;;;;;;16.55;61.28;98512.19;8413826;28;20242;-81
2022/10/12 18:08:23;;;;;;;0.00;0.00;;;;;;;16.54;61.24;98515.72;8413877;28;20231;-82
2022/10/12 18:12:27;;;;;;;0.00;0.00;;;;;;;16.37;61.50;98520.19;8412671;28;20231;-76
2022/10/12 18:16:31;;;;;;;0.00;0.00;;;;;;;16.34;61.44;98522.13;8413671;28;20338;-78
2022/10/12 18:20:34;;;;;;;0.00;0.00;;;;;;;16.28;61.54;98514.63;8418936;28;20312;-83
2022/10/12 18:24:37;;;;;;;0.00;0.00;;;;;;;16.15;61.89;98517.97;8420020;28;20242;-86
2022/10/12 18:28:41;;;;;;;0.00;0.00;;;;;;;16.25;62.01;98517.44;8419705;28;20538;-86
2022/10/12 18:32:44;;;;;;;0.00;0.00;;;;;;;16.18;61.83;98515.22;8419263;28;20295;-82
2022/10/12 18:36:47;;;;;;;0.00;0.00;;;;;;;16.14;62.06;98518.06;8418639;28;20227;-85
2022/10/12 18:40:49;;;;;;;0.00;0.00;;;;;;;16.18;61.94;98522.19;8420767;28;20237;-88
2022/10/12 18:44:54;;;;;;;0.00;0.00;;;;;;;16.10;61.64;98525.25;8420993;28;20246;-79
2022/10/12 18:48:57;;;;;;;0.00;0.00;;;;;;;16.01;61.75;98524.03;8419319;28;20234;-83
2022/10/12 18:53:00;;;;;;;0.00;0.00;;;;;;;15.99;61.64;98527.63;8417566;28;20233;-84
2022/10/12 18:57:03;;;;;;;0.00;0.00;;;;;;;16.51;68.28;98528.97;8418758;28;20265;-79
2022/10/12 19:01:10;;;;;;;0.00;0.00;;;;;;;16.68;65.72;98526.19;8417756;28;20226;-74
2022/10/12 19:05:13;;;;;;;0.00;0.00;;;;;;;17.00;65.50;98528.63;8419624;28;20226;-80
2022/10/12 19:09:16;;;;;;;0.00;0.00;;;;;;;16.32;60.97;98522.22;8421919;28;20330;-87
2022/10/12 19:13:19;;;;;;;0.00;0.00;;;;;;;16.05;61.10;98524.69;8423874;28;20230;-84
2022/10/12 19:17:23;;;;;;;0.00;0.00;;;;;;;16.04;61.53;98533.44;8423878;28;20243;-86